sensor_id;sensor_type;location;lat;lon;timestamp;temperature;humidity
40255;DHT22;25973;52.368;4.940;2022-10-16T00:01:55;14.40;99.90
40255;DHT22;25973;52.368;4.940;2022-10-16T00:04:21;14.40;99.90
40255;DHT22;25973;52.368;4.940;2022-10-16T00:06:46;14.50;99.90
40255;DHT22;25973;52.368;4.940;2022-10-16T00:09:12;14.50;99.90
40255;DHT22;25973;52.368;4.940;2022-10-16T00:11:39;14.50;99.90
40255;DHT22;25973;52.368;4.940;2022-10-16T00:14:08;14.50;99.90
40255;DHT22;25973;52.368;4.940;2022-10-16T00:16:35;14.50;99.90
40255;DHT22;25973;52.368;4.940;2022-10-16T00:19:01;14.50;99.90
40255;DHT22;25973;52.368;4.940;2022-10-16T00:21:29;14.50;99.90
40255;DHT22;25973;52.368;4.940;2022-10-16T00:24:00;14.50;99.90
40255;DHT22;25973;52.368;4.940;2022-10-16T00:26:27;14.50;99.90
40255;DHT22;25973;52.368;4.940;2022-10-16T00:28:52;14.50;99.90
40255;DHT22;25973;52.368;4.940;2022-10-16T00:31:20;14.50;99.90
40255;DHT22;25973;52.368;4.940;2022-10-16T00:33:47;14.40;99.90
40255;DHT22;25973;52.368;4.940;2022-10-16T00:36:15;14.40;99.90
40255;DHT22;25973;52.368;4.940;2022-10-16T00:38:41;14.40;99.90
40255;DHT22;25973;52.368;4.940;2022-10-16T00:41:07;14.40;99.90
40255;DHT22;25973;52.368;4.940;2022-10-16T00:43:43;14.40;99.90
40255;DHT22;25973;52.368;4.940;2022-10-16T00:46:38;14.30;99.90
40255;DHT22;25973;52.368;4.940;2022-10-16T00:49:08;14.30;99.90
40255;DHT22;25973;52.368;4.940;2022-10-16T00:51:39;14.30;99.90
40255;DHT22;25973;52.368;4.940;2022-10-16T00:54:13;14.30;99.90
40255;DHT22;25973;52.368;4.940;2022-10-16T00:56:40;14.30;99.90
40255;DHT22;25973;52.368;4.940;2022-10-16T00:59:22;14.30;99.90
40255;DHT22;25973;52.368;4.940;2022-10-16T01:01:50;14.30;99.90
40255;DHT22;25973;52.368;4.940;2022-10-16T01:04:15;14.30;99.90
40255;DHT22;25973;52.368;4.940;2022-10-16T01:09:39;14.30;99.90
40255;DHT22;25973;52.368;4.940;2022-10-16T01:12:36;14.30;99.90
40255;DHT22;25973;52.368;4.940;2022-10-16T01:15:48;14.30;99.90
40255;DHT22;25973;52.368;4.940;2022-10-16T01:18:11;14.30;99.90
40255;DHT22;25973;52.368;4.940;2022-10-16T01:20:58;14.30;99.90
40255;DHT22;25973;52.368;4.940;2022-10-16T01:26:29;14.30;99.90
40255;DHT22;25973;52.368;4.940;2022-10-16T01:29:05;14.30;99.90
40255;DHT22;25973;52.368;4.940;2022-10-16T01:31:35;14.30;99.90
40255;DHT22;25973;52.368;4.940;2022-10-16T01:34:38;14.30;99.90
40255;DHT22;25973;52.368;4.940;2022-10-16T01:37:13;14.30;99.90
40255;DHT22;25973;52.368;4.940;2022-10-16T01:39:42;14.30;99.90
40255;DHT22;25973;52.368;4.940;2022-10-16T01:42:33;14.30;99.90
40255;DHT22;25973;52.368;4.940;2022-10-16T01:45:01;14.30;99.90
40255;DHT22;25973;52.368;4.940;2022-10-16T01:47:30;14.30;99.90
40255;DHT22;25973;52.368;4.940;2022-10-16T01:49:57;14.20;99.90
40255;DHT22;25973;52.368;4.940;2022-10-16T01:52:26;14.30;99.90
40255;DHT22;25973;52.368;4.940;2022-10-16T01:54:55;14.30;99.90
40255;DHT22;25973;52.368;4.940;2022-10-16T01:57:24;14.30;99.90
40255;DHT22;25973;52.368;4.940;2022-10-16T01:59:56;14.30;99.90
40255;DHT22;25973;52.368;4.940;2022-10-16T02:02:22;14.20;99.90
40255;DHT22;25973;52.368;4.940;2022-10-16T02:05:03;14.20;99.90
40255;DHT22;25973;52.368;4.940;2022-10-16T02:07:30;14.20;99.90
40255;DHT22;25973;52.368;4.940;2022-10-16T02:09:55;14.20;99.90
40255;DHT22;25973;52.368;4.940;2022-10-16T02:12:28;14.20;99.90
40255;DHT22;25973;52.368;4.940;2022-10-16T02:14:55;14.20;99.90
40255;DHT22;25973;52.368;4.940;2022-10-16T02:17:20;14.20;99.90
40255;DHT22;25973;52.368;4.940;2022-10-16T02:19:48;14.20;99.90
40255;DHT22;25973;52.368;4.940;2022-10-16T02:22:36;14.20;99.90
40255;DHT22;25973;52.368;4.940;2022-10-16T02:25:24;14.20;99.90
40255;DHT22;25973;52.368;4.940;2022-10-16T02:28:16;14.20;99.90
40255;DHT22;25973;52.368;4.940;2022-10-16T02:30:49;14.10;99.90
40255;DHT22;25973;52.368;4.940;2022-10-16T02:33:16;14.20;99.90
40255;DHT22;25973;52.368;4.940;2022-10-16T02:35:44;14.10;99.90
40255;DHT22;25973;52.368;4.940;2022-10-16T02:38:12;14.10;99.90
40255;DHT22;25973;52.368;4.940;2022-10-16T02:40:39;14.10;99.90
40255;DHT22;25973;52.368;4.940;2022-10-16T02:43:05;14.20;99.90
40255;DHT22;25973;52.368;4.940;2022-10-16T02:45:31;14.10;99.90
40255;DHT22;25973;52.368;4.940;2022-10-16T02:48:00;14.10;99.90
40255;DHT22;25973;52.368;4.940;2022-10-16T02:50:26;14.10;99.90
40255;DHT22;25973;52.368;4.940;2022-10-16T02:52:51;14.10;99.90
40255;DHT22;25973;52.368;4.940;2022-10-16T02:55:17;14.00;99.90
40255;DHT22;25973;52.368;4.940;2022-10-16T02:57:43;14.00;99.90
40255;DHT22;25973;52.368;4.940;2022-10-16T03:00:13;14.00;99.90
40255;DHT22;25973;52.368;4.940;2022-10-16T03:02:39;14.00;99.90
40255;DHT22;25973;52.368;4.940;2022-10-16T03:05:05;14.00;99.90
40255;DHT22;25973;52.368;4.940;2022-10-16T03:07:34;13.90;99.90
40255;DHT22;25973;52.368;4.940;2022-10-16T03:10:00;13.90;99.90
40255;DHT22;25973;52.368;4.940;2022-10-16T03:12:27;13.90;99.90
40255;DHT22;25973;52.368;4.940;2022-10-16T03:14:52;13.80;99.90
40255;DHT22;25973;52.368;4.940;2022-10-16T03:17:18;13.80;99.90
40255;DHT22;25973;52.368;4.940;2022-10-16T03:19:44;13.80;99.90
40255;DHT22;25973;52.368;4.940;2022-10-16T03:22:10;13.80;99.90
40255;DHT22;25973;52.368;4.940;2022-10-16T03:24:35;13.80;99.90
40255;DHT22;25973;52.368;4.940;2022-10-16T03:27:01;13.70;99.90
40255;DHT22;25973;52.368;4.940;2022-10-16T03:29:27;13.80;99.90
40255;DHT22;25973;52.368;4.940;2022-10-16T03:31:55;13.80;99.90
40255;DHT22;25973;52.368;4.940;2022-10-16T03:34:20;13.70;99.90
40255;DHT22;25973;52.368;4.940;2022-10-16T03:36:46;13.70;99.90
40255;DHT22;25973;52.368;4.940;2022-10-16T03:39:11;13.70;99.90
40255;DHT22;25973;52.368;4.940;2022-10-16T03:41:37;13.70;99.90
40255;DHT22;25973;52.368;4.940;2022-10-16T03:44:02;13.70;99.90
40255;DHT22;25973;52.368;4.940;2022-10-16T03:46:28;13.70;99.90
40255;DHT22;25973;52.368;4.940;2022-10-16T03:48:54;13.60;99.90
40255;DHT22;25973;52.368;4.940;2022-10-16T03:51:20;13.70;99.90
40255;DHT22;25973;52.368;4.940;2022-10-16T03:53:46;13.60;99.90
40255;DHT22;25973;52.368;4.940;2022-10-16T03:56:11;13.60;99.90
40255;DHT22;25973;52.368;4.940;2022-10-16T03:58:37;13.60;99.90
40255;DHT22;25973;52.368;4.940;2022-10-16T04:01:02;13.50;99.90
40255;DHT22;25973;52.368;4.940;2022-10-16T04:03:28;13.60;99.90
40255;DHT22;25973;52.368;4.940;2022-10-16T04:05:54;13.60;99.90
40255;DHT22;25973;52.368;4.940;2022-10-16T04:08:20;13.60;99.90
40255;DHT22;25973;52.368;4.940;2022-10-16T04:10:46;13.50;99.90
40255;DHT22;25973;52.368;4.940;2022-10-16T04:13:12;13.60;99.90
40255;DHT22;25973;52.368;4.940;2022-10-16T04:15:38;13.60;99.90
40255;DHT22;25973;52.368;4.940;2022-10-16T04:18:03;13.50;99.90
40255;DHT22;25973;52.368;4.940;2022-10-16T04:20:29;13.60;99.90
40255;DHT22;25973;52.368;4.940;2022-10-16T04:22:55;13.60;99.90
40255;DHT22;25973;52.368;4.940;2022-10-16T04:25:21;13.60;99.90
40255;DHT22;25973;52.368;4.940;2022-10-16T04:27:46;13.60;99.90
40255;DHT22;25973;52.368;4.940;2022-10-16T04:30:12;13.60;99.90
40255;DHT22;25973;52.368;4.940;2022-10-16T04:32:38;13.60;99.90
40255;DHT22;25973;52.368;4.940;2022-10-16T04:35:04;13.70;99.90
40255;DHT22;25973;52.368;4.940;2022-10-16T04:37:30;13.60;99.90
40255;DHT22;25973;52.368;4.940;2022-10-16T04:39:55;13.60;99.90
40255;DHT22;25973;52.368;4.940;2022-10-16T04:42:21;13.70;99.90
40255;DHT22;25973;52.368;4.940;2022-10-16T04:44:47;13.70;99.90
40255;DHT22;25973;52.368;4.940;2022-10-16T04:47:12;13.60;99.90
40255;DHT22;25973;52.368;4.940;2022-10-16T04:49:38;13.70;99.90
40255;DHT22;25973;52.368;4.940;2022-10-16T04:52:04;13.70;99.90
40255;DHT22;25973;52.368;4.940;2022-10-16T04:54:30;13.70;99.90
40255;DHT22;25973;52.368;4.940;2022-10-16T04:56:55;13.70;99.90
40255;DHT22;25973;52.368;4.940;2022-10-16T04:59:21;13.70;99.90
40255;DHT22;25973;52.368;4.940;2022-10-16T05:01:47;13.70;99.90
40255;DHT22;25973;52.368;4.940;2022-10-16T05:04:13;13.70;99.90
40255;DHT22;25973;52.368;4.940;2022-10-16T05:06:40;13.70;99.90
40255;DHT22;25973;52.368;4.940;2022-10-16T05:09:06;13.70;99.90
40255;DHT22;25973;52.368;4.940;2022-10-16T05:11:32;13.70;99.90
40255;DHT22;25973;52.368;4.940;2022-10-16T05:13:57;13.70;99.90
40255;DHT22;25973;52.368;4.940;2022-10-16T05:16:23;13.80;99.90
40255;DHT22;25973;52.368;4.940;2022-10-16T05:18:48;13.80;99.90
40255;DHT22;25973;52.368;4.940;2022-10-16T05:21:15;13.70;99.90
40255;DHT22;25973;52.368;4.940;2022-10-16T05:23:40;13.70;99.90
40255;DHT22;25973;52.368;4.940;2022-10-16T05:26:06;13.70;99.90
40255;DHT22;25973;52.368;4.940;2022-10-16T05:28:31;13.70;99.90
40255;DHT22;25973;52.368;4.940;2022-10-16T05:31:00;13.70;99.90
40255;DHT22;25973;52.368;4.940;2022-10-16T05:33:28;13.70;99.90
40255;DHT22;25973;52.368;4.940;2022-10-16T05:35:54;13.80;99.90
40255;DHT22;25973;52.368;4.940;2022-10-16T05:38:19;13.70;99.90
40255;DHT22;25973;52.368;4.940;2022-10-16T05:40:51;13.80;99.90
40255;DHT22;25973;52.368;4.940;2022-10-16T05:43:17;13.70;99.90
40255;DHT22;25973;52.368;4.940;2022-10-16T05:45:43;13.80;99.90
40255;DHT22;25973;52.368;4.940;2022-10-16T05:48:09;13.70;99.90
40255;DHT22;25973;52.368;4.940;2022-10-16T05:50:34;13.70;99.90
40255;DHT22;25973;52.368;4.940;2022-10-16T05:53:00;13.70;99.90
40255;DHT22;25973;52.368;4.940;2022-10-16T05:55:25;13.80;99.90
40255;DHT22;25973;52.368;4.940;2022-10-16T05:57:54;13.80;99.90
40255;DHT22;25973;52.368;4.940;2022-10-16T06:00:19;13.80;99.90
40255;DHT22;25973;52.368;4.940;2022-10-16T06:02:45;13.70;99.90
40255;DHT22;25973;52.368;4.940;2022-10-16T06:05:11;13.80;99.90
40255;DHT22;25973;52.368;4.940;2022-10-16T06:07:36;13.70;99.90
40255;DHT22;25973;52.368;4.940;2022-10-16T06:10:02;13.80;99.90
40255;DHT22;25973;52.368;4.940;2022-10-16T06:12:28;13.80;99.90
40255;DHT22;25973;52.368;4.940;2022-10-16T06:14:54;13.70;99.90
40255;DHT22;25973;52.368;4.940;2022-10-16T06:17:19;13.80;99.90
40255;DHT22;25973;52.368;4.940;2022-10-16T06:19:48;13.80;99.90
40255;DHT22;25973;52.368;4.940;2022-10-16T06:22:13;13.80;99.90
40255;DHT22;25973;52.368;4.940;2022-10-16T06:24:39;13.80;99.90
40255;DHT22;25973;52.368;4.940;2022-10-16T06:27:04;13.70;99.90
40255;DHT22;25973;52.368;4.940;2022-10-16T06:29:30;13.80;99.90
40255;DHT22;25973;52.368;4.940;2022-10-16T06:31:56;13.80;99.90
40255;DHT22;25973;52.368;4.940;2022-10-16T06:34:21;13.80;99.90
40255;DHT22;25973;52.368;4.940;2022-10-16T06:36:47;13.80;99.90
40255;DHT22;25973;52.368;4.940;2022-10-16T06:39:12;13.90;99.90
40255;DHT22;25973;52.368;4.940;2022-10-16T06:41:38;13.90;99.90
40255;DHT22;25973;52.368;4.940;2022-10-16T06:44:07;13.90;99.90
40255;DHT22;25973;52.368;4.940;2022-10-16T06:46:36;14.00;99.90
40255;DHT22;25973;52.368;4.940;2022-10-16T06:49:02;14.00;99.90
40255;DHT22;25973;52.368;4.940;2022-10-16T06:51:27;14.00;99.90
40255;DHT22;25973;52.368;4.940;2022-10-16T06:53:54;14.10;99.90
40255;DHT22;25973;52.368;4.940;2022-10-16T06:56:26;14.10;99.90
40255;DHT22;25973;52.368;4.940;2022-10-16T06:58:53;14.10;99.90
40255;DHT22;25973;52.368;4.940;2022-10-16T07:01:21;14.10;99.90
40255;DHT22;25973;52.368;4.940;2022-10-16T07:03:47;14.20;99.90
40255;DHT22;25973;52.368;4.940;2022-10-16T07:06:18;14.20;99.90
40255;DHT22;25973;52.368;4.940;2022-10-16T07:08:45;14.20;99.90
40255;DHT22;25973;52.368;4.940;2022-10-16T07:11:13;14.20;99.90
40255;DHT22;25973;52.368;4.940;2022-10-16T07:13:41;14.20;99.90
40255;DHT22;25973;52.368;4.940;2022-10-16T07:16:09;14.20;99.90
40255;DHT22;25973;52.368;4.940;2022-10-16T07:18:35;14.20;99.90
40255;DHT22;25973;52.368;4.940;2022-10-16T07:23:30;14.20;99.90
40255;DHT22;25973;52.368;4.940;2022-10-16T07:25:56;14.10;99.90
40255;DHT22;25973;52.368;4.940;2022-10-16T07:28:21;14.20;99.90
40255;DHT22;25973;52.368;4.940;2022-10-16T07:30:47;14.20;99.90
40255;DHT22;25973;52.368;4.940;2022-10-16T07:33:13;14.30;99.90
40255;DHT22;25973;52.368;4.940;2022-10-16T07:35:47;14.40;99.90
40255;DHT22;25973;52.368;4.940;2022-10-16T07:38:16;14.50;99.90
40255;DHT22;25973;52.368;4.940;2022-10-16T07:40:41;14.70;99.90
40255;DHT22;25973;52.368;4.940;2022-10-16T07:43:07;14.90;99.90
40255;DHT22;25973;52.368;4.940;2022-10-16T07:45:32;15.10;99.90
40255;DHT22;25973;52.368;4.940;2022-10-16T07:47:58;15.30;99.90
40255;DHT22;25973;52.368;4.940;2022-10-16T07:50:23;15.50;99.90
40255;DHT22;25973;52.368;4.940;2022-10-16T07:52:49;15.60;99.90
40255;DHT22;25973;52.368;4.940;2022-10-16T07:55:14;15.80;99.90
40255;DHT22;25973;52.368;4.940;2022-10-16T07:57:40;15.90;99.90
40255;DHT22;25973;52.368;4.940;2022-10-16T08:00:06;16.00;99.90
40255;DHT22;25973;52.368;4.940;2022-10-16T08:02:32;16.20;99.90
40255;DHT22;25973;52.368;4.940;2022-10-16T08:04:57;16.40;99.90
40255;DHT22;25973;52.368;4.940;2022-10-16T08:07:29;16.50;99.90
40255;DHT22;25973;52.368;4.940;2022-10-16T08:09:54;16.70;99.90
40255;DHT22;25973;52.368;4.940;2022-10-16T08:12:21;16.90;99.90
40255;DHT22;25973;52.368;4.940;2022-10-16T08:14:47;17.00;99.90
40255;DHT22;25973;52.368;4.940;2022-10-16T08:17:14;17.20;99.90
40255;DHT22;25973;52.368;4.940;2022-10-16T08:19:40;17.30;99.90
40255;DHT22;25973;52.368;4.940;2022-10-16T08:22:05;17.50;99.90
40255;DHT22;25973;52.368;4.940;2022-10-16T08:24:33;17.60;99.90
40255;DHT22;25973;52.368;4.940;2022-10-16T08:27:00;17.70;99.90
40255;DHT22;25973;52.368;4.940;2022-10-16T08:29:25;17.70;99.90
40255;DHT22;25973;52.368;4.940;2022-10-16T08:31:51;17.80;99.90
40255;DHT22;25973;52.368;4.940;2022-10-16T08:34:16;17.80;99.90
40255;DHT22;25973;52.368;4.940;2022-10-16T08:36:42;17.80;99.90
40255;DHT22;25973;52.368;4.940;2022-10-16T08:39:07;18.00;99.90
40255;DHT22;25973;52.368;4.940;2022-10-16T08:45:19;18.20;99.90
40255;DHT22;25973;52.368;4.940;2022-10-16T08:47:59;18.20;99.90
40255;DHT22;25973;52.368;4.940;2022-10-16T08:50:28;18.20;99.90
40255;DHT22;25973;52.368;4.940;2022-10-16T08:52:55;18.30;99.90
40255;DHT22;25973;52.368;4.940;2022-10-16T08:55:43;18.40;99.90
40255;DHT22;25973;52.368;4.940;2022-10-16T09:00:38;18.30;99.90
40255;DHT22;25973;52.368;4.940;2022-10-16T09:12:00;18.40;99.90
40255;DHT22;25973;52.368;4.940;2022-10-16T09:25:34;18.70;99.90
40255;DHT22;25973;52.368;4.940;2022-10-16T09:28:00;18.70;99.90
40255;DHT22;25973;52.368;4.940;2022-10-16T09:30:29;18.70;99.90
40255;DHT22;25973;52.368;4.940;2022-10-16T09:32:57;18.70;99.90
40255;DHT22;25973;52.368;4.940;2022-10-16T09:37:59;18.70;99.90
40255;DHT22;25973;52.368;4.940;2022-10-16T09:40:37;18.80;99.90
40255;DHT22;25973;52.368;4.940;2022-10-16T09:43:31;19.20;99.90
40255;DHT22;25973;52.368;4.940;2022-10-16T09:46:03;19.40;99.90
40255;DHT22;25973;52.368;4.940;2022-10-16T09:48:39;19.90;99.90
40255;DHT22;25973;52.368;4.940;2022-10-16T09:51:26;20.50;99.90
40255;DHT22;25973;52.368;4.940;2022-10-16T09:53:58;21.30;99.90
40255;DHT22;25973;52.368;4.940;2022-10-16T09:56:29;22.10;99.90
40255;DHT22;25973;52.368;4.940;2022-10-16T09:58:57;22.90;99.90
40255;DHT22;25973;52.368;4.940;2022-10-16T10:01:30;23.90;99.90
40255;DHT22;25973;52.368;4.940;2022-10-16T10:03:58;24.70;99.90
40255;DHT22;25973;52.368;4.940;2022-10-16T10:06:33;25.00;99.90
40255;DHT22;25973;52.368;4.940;2022-10-16T10:09:06;25.10;99.30
40255;DHT22;25973;52.368;4.940;2022-10-16T10:14:35;25.60;98.30
40255;DHT22;25973;52.368;4.940;2022-10-16T10:19:38;28.00;95.10
40255;DHT22;25973;52.368;4.940;2022-10-16T10:22:31;28.90;93.40
40255;DHT22;25973;52.368;4.940;2022-10-16T10:25:00;28.20;93.20
40255;DHT22;25973;52.368;4.940;2022-10-16T10:30:36;26.00;95.10
40255;DHT22;25973;52.368;4.940;2022-10-16T10:35:48;27.20;94.30
40255;DHT22;25973;52.368;4.940;2022-10-16T10:38:20;26.90;93.50
40255;DHT22;25973;52.368;4.940;2022-10-16T10:40:56;26.30;94.40
40255;DHT22;25973;52.368;4.940;2022-10-16T10:46:02;24.30;96.90
40255;DHT22;25973;52.368;4.940;2022-10-16T10:51:01;22.90;99.70
40255;DHT22;25973;52.368;4.940;2022-10-16T10:53:49;22.40;99.90
40255;DHT22;25973;52.368;4.940;2022-10-16T10:56:47;21.80;99.90
40255;DHT22;25973;52.368;4.940;2022-10-16T10:59:52;21.20;99.90
40255;DHT22;25973;52.368;4.940;2022-10-16T11:07:33;20.00;99.90
40255;DHT22;25973;52.368;4.940;2022-10-16T11:10:31;19.80;99.90
40255;DHT22;25973;52.368;4.940;2022-10-16T11:16:35;19.40;99.90
40255;DHT22;25973;52.368;4.940;2022-10-16T11:19:12;19.20;99.90
40255;DHT22;25973;52.368;4.940;2022-10-16T11:21:46;19.10;99.90
40255;DHT22;25973;52.368;4.940;2022-10-16T11:24:31;19.00;99.90
40255;DHT22;25973;52.368;4.940;2022-10-16T11:27:04;19.10;99.90
40255;DHT22;25973;52.368;4.940;2022-10-16T11:29:32;19.10;99.90
40255;DHT22;25973;52.368;4.940;2022-10-16T11:32:06;19.10;99.90
40255;DHT22;25973;52.368;4.940;2022-10-16T11:34:50;19.10;99.90
40255;DHT22;25973;52.368;4.940;2022-10-16T11:39:45;19.00;99.90
40255;DHT22;25973;52.368;4.940;2022-10-16T11:42:34;19.00;99.90
40255;DHT22;25973;52.368;4.940;2022-10-16T11:45:21;19.00;99.90
40255;DHT22;25973;52.368;4.940;2022-10-16T11:48:04;19.10;99.90
40255;DHT22;25973;52.368;4.940;2022-10-16T11:50:46;19.10;99.90
40255;DHT22;25973;52.368;4.940;2022-10-16T11:56:05;19.10;99.90
40255;DHT22;25973;52.368;4.940;2022-10-16T12:01:33;19.00;99.90
40255;DHT22;25973;52.368;4.940;2022-10-16T12:09:24;19.00;99.90
40255;DHT22;25973;52.368;4.940;2022-10-16T12:11:51;19.00;99.90
40255;DHT22;25973;52.368;4.940;2022-10-16T12:14:32;19.00;99.90
40255;DHT22;25973;52.368;4.940;2022-10-16T12:20:19;19.00;99.90
40255;DHT22;25973;52.368;4.940;2022-10-16T12:22:49;18.90;99.90
40255;DHT22;25973;52.368;4.940;2022-10-16T12:25:30;18.80;99.90
40255;DHT22;25973;52.368;4.940;2022-10-16T12:28:04;18.80;99.90
40255;DHT22;25973;52.368;4.940;2022-10-16T12:30:33;18.70;99.90
40255;DHT22;25973;52.368;4.940;2022-10-16T12:33:05;18.70;99.90
40255;DHT22;25973;52.368;4.940;2022-10-16T12:35:42;18.60;99.90
40255;DHT22;25973;52.368;4.940;2022-10-16T12:40:43;18.60;99.90
40255;DHT22;25973;52.368;4.940;2022-10-16T12:43:25;18.70;99.90
40255;DHT22;25973;52.368;4.940;2022-10-16T12:46:02;18.70;99.90
40255;DHT22;25973;52.368;4.940;2022-10-16T12:48:29;18.60;99.90
40255;DHT22;25973;52.368;4.940;2022-10-16T12:50:55;18.60;99.90
40255;DHT22;25973;52.368;4.940;2022-10-16T12:53:25;18.60;99.90
40255;DHT22;25973;52.368;4.940;2022-10-16T12:56:14;18.60;99.90
40255;DHT22;25973;52.368;4.940;2022-10-16T12:59:07;18.60;99.90
40255;DHT22;25973;52.368;4.940;2022-10-16T13:04:43;18.50;99.90
40255;DHT22;25973;52.368;4.940;2022-10-16T13:08:01;18.50;99.90
40255;DHT22;25973;52.368;4.940;2022-10-16T13:10:27;18.50;99.90
40255;DHT22;25973;52.368;4.940;2022-10-16T13:13:20;18.40;99.90
40255;DHT22;25973;52.368;4.940;2022-10-16T13:27:14;18.40;99.90
40255;DHT22;25973;52.368;4.940;2022-10-16T13:29:42;18.40;99.90
40255;DHT22;25973;52.368;4.940;2022-10-16T13:32:11;18.50;99.90
40255;DHT22;25973;52.368;4.940;2022-10-16T13:34:44;18.50;99.90
40255;DHT22;25973;52.368;4.940;2022-10-16T13:37:24;18.50;99.90
40255;DHT22;25973;52.368;4.940;2022-10-16T13:39:50;18.60;99.90
40255;DHT22;25973;52.368;4.940;2022-10-16T13:42:24;18.60;99.90
40255;DHT22;25973;52.368;4.940;2022-10-16T13:44:52;18.60;99.90
40255;DHT22;25973;52.368;4.940;2022-10-16T13:47:21;18.60;99.90
40255;DHT22;25973;52.368;4.940;2022-10-16T13:49:59;18.60;99.90
40255;DHT22;25973;52.368;4.940;2022-10-16T13:52:25;18.60;99.90
40255;DHT22;25973;52.368;4.940;2022-10-16T13:54:51;18.60;99.90
40255;DHT22;25973;52.368;4.940;2022-10-16T13:57:17;18.60;99.90
40255;DHT22;25973;52.368;4.940;2022-10-16T13:59:43;18.60;99.90
40255;DHT22;25973;52.368;4.940;2022-10-16T14:04:41;18.60;99.90
40255;DHT22;25973;52.368;4.940;2022-10-16T14:07:14;18.60;99.90
40255;DHT22;25973;52.368;4.940;2022-10-16T14:09:40;18.60;99.90
40255;DHT22;25973;52.368;4.940;2022-10-16T14:12:10;18.60;99.90
40255;DHT22;25973;52.368;4.940;2022-10-16T14:14:45;18.60;99.90
40255;DHT22;25973;52.368;4.940;2022-10-16T14:17:26;18.50;99.90
40255;DHT22;25973;52.368;4.940;2022-10-16T14:19:56;18.50;99.90
40255;DHT22;25973;52.368;4.940;2022-10-16T14:22:30;18.50;99.90
40255;DHT22;25973;52.368;4.940;2022-10-16T14:24:56;18.50;99.90
40255;DHT22;25973;52.368;4.940;2022-10-16T14:27:32;18.60;99.90
40255;DHT22;25973;52.368;4.940;2022-10-16T14:32:33;18.50;99.90
40255;DHT22;25973;52.368;4.940;2022-10-16T14:34:58;18.50;99.90
40255;DHT22;25973;52.368;4.940;2022-10-16T14:37:26;18.50;99.90
40255;DHT22;25973;52.368;4.940;2022-10-16T14:39:53;18.40;99.90
40255;DHT22;25973;52.368;4.940;2022-10-16T14:42:22;18.40;99.90
40255;DHT22;25973;52.368;4.940;2022-10-16T14:44:50;18.40;99.90
40255;DHT22;25973;52.368;4.940;2022-10-16T14:47:19;18.40;99.90
40255;DHT22;25973;52.368;4.940;2022-10-16T14:49:47;18.40;99.90
40255;DHT22;25973;52.368;4.940;2022-10-16T14:52:13;18.40;99.90
40255;DHT22;25973;52.368;4.940;2022-10-16T14:54:39;18.30;99.90
40255;DHT22;25973;52.368;4.940;2022-10-16T14:57:05;18.30;99.90
40255;DHT22;25973;52.368;4.940;2022-10-16T14:59:41;18.40;99.90
40255;DHT22;25973;52.368;4.940;2022-10-16T15:02:30;18.40;99.90
40255;DHT22;25973;52.368;4.940;2022-10-16T15:04:57;18.40;99.90
40255;DHT22;25973;52.368;4.940;2022-10-16T15:07:23;18.30;99.90
40255;DHT22;25973;52.368;4.940;2022-10-16T15:09:49;18.30;99.90
40255;DHT22;25973;52.368;4.940;2022-10-16T15:12:15;18.30;99.90
40255;DHT22;25973;52.368;4.940;2022-10-16T15:14:40;18.20;99.90
40255;DHT22;25973;52.368;4.940;2022-10-16T15:17:09;18.20;99.90
40255;DHT22;25973;52.368;4.940;2022-10-16T15:19:35;18.20;99.90
40255;DHT22;25973;52.368;4.940;2022-10-16T15:22:00;18.20;99.90
40255;DHT22;25973;52.368;4.940;2022-10-16T15:24:26;18.20;99.90
40255;DHT22;25973;52.368;4.940;2022-10-16T15:26:51;18.20;99.90
40255;DHT22;25973;52.368;4.940;2022-10-16T15:29:17;18.20;99.90
40255;DHT22;25973;52.368;4.940;2022-10-16T15:31:43;18.10;99.90
40255;DHT22;25973;52.368;4.940;2022-10-16T15:34:09;18.10;99.90
40255;DHT22;25973;52.368;4.940;2022-10-16T15:36:37;18.10;99.90
40255;DHT22;25973;52.368;4.940;2022-10-16T15:39:04;18.00;99.90
40255;DHT22;25973;52.368;4.940;2022-10-16T15:41:29;18.00;99.90
40255;DHT22;25973;52.368;4.940;2022-10-16T15:43:55;17.90;99.90
40255;DHT22;25973;52.368;4.940;2022-10-16T15:46:22;17.90;99.90
40255;DHT22;25973;52.368;4.940;2022-10-16T15:48:50;17.90;99.90
40255;DHT22;25973;52.368;4.940;2022-10-16T15:51:16;17.90;99.90
40255;DHT22;25973;52.368;4.940;2022-10-16T15:53:42;17.90;99.90
40255;DHT22;25973;52.368;4.940;2022-10-16T15:56:10;17.80;99.90
40255;DHT22;25973;52.368;4.940;2022-10-16T15:58:36;17.80;99.90
40255;DHT22;25973;52.368;4.940;2022-10-16T16:01:02;17.80;99.90
40255;DHT22;25973;52.368;4.940;2022-10-16T16:03:29;17.80;99.90
40255;DHT22;25973;52.368;4.940;2022-10-16T16:05:55;17.80;99.90
40255;DHT22;25973;52.368;4.940;2022-10-16T16:08:21;17.80;99.90
40255;DHT22;25973;52.368;4.940;2022-10-16T16:11:04;17.70;99.90
40255;DHT22;25973;52.368;4.940;2022-10-16T16:13:30;17.70;99.90
40255;DHT22;25973;52.368;4.940;2022-10-16T16:15:56;17.70;99.90
40255;DHT22;25973;52.368;4.940;2022-10-16T16:18:22;17.60;99.90
40255;DHT22;25973;52.368;4.940;2022-10-16T16:20:49;17.60;99.90
40255;DHT22;25973;52.368;4.940;2022-10-16T16:23:15;17.60;99.90
40255;DHT22;25973;52.368;4.940;2022-10-16T16:25:41;17.50;99.90
40255;DHT22;25973;52.368;4.940;2022-10-16T16:28:07;17.50;99.90
40255;DHT22;25973;52.368;4.940;2022-10-16T16:30:36;17.50;99.90
40255;DHT22;25973;52.368;4.940;2022-10-16T16:33:01;17.50;99.90
40255;DHT22;25973;52.368;4.940;2022-10-16T16:35:27;17.40;99.90
40255;DHT22;25973;52.368;4.940;2022-10-16T16:37:52;17.40;99.90
40255;DHT22;25973;52.368;4.940;2022-10-16T16:40:18;17.30;99.90
40255;DHT22;25973;52.368;4.940;2022-10-16T16:42:43;17.30;99.90
40255;DHT22;25973;52.368;4.940;2022-10-16T16:45:09;17.30;99.90
40255;DHT22;25973;52.368;4.940;2022-10-16T16:47:35;17.20;99.90
40255;DHT22;25973;52.368;4.940;2022-10-16T16:50:00;17.20;99.90
40255;DHT22;25973;52.368;4.940;2022-10-16T16:52:30;17.10;99.90
40255;DHT22;25973;52.368;4.940;2022-10-16T16:54:56;17.10;99.90
40255;DHT22;25973;52.368;4.940;2022-10-16T16:57:21;17.00;99.90
40255;DHT22;25973;52.368;4.940;2022-10-16T16:59:47;17.00;99.90
40255;DHT22;25973;52.368;4.940;2022-10-16T17:02:15;16.90;99.90
40255;DHT22;25973;52.368;4.940;2022-10-16T17:04:40;16.90;99.90
40255;DHT22;25973;52.368;4.940;2022-10-16T17:07:06;16.90;99.90
40255;DHT22;25973;52.368;4.940;2022-10-16T17:09:32;16.80;99.90
40255;DHT22;25973;52.368;4.940;2022-10-16T17:11:58;16.80;99.90
40255;DHT22;25973;52.368;4.940;2022-10-16T17:14:23;16.70;99.90
40255;DHT22;25973;52.368;4.940;2022-10-16T17:16:49;16.60;99.90
40255;DHT22;25973;52.368;4.940;2022-10-16T17:19:18;16.60;99.90
40255;DHT22;25973;52.368;4.940;2022-10-16T17:21:45;16.60;99.90
40255;DHT22;25973;52.368;4.940;2022-10-16T17:24:10;16.60;99.90
40255;DHT22;25973;52.368;4.940;2022-10-16T17:26:36;16.60;99.90